KLIT

Bill and Hillary Clinton National / Adams Field Airport

Little Rock, Arkansas, USA
KLIT 210520Z 2106/2206 29006KT P6SM SCT050 FM210900 27008KT P6SM SCT250 FM211500 30009G18KT P6SM BKN050 FM220000 34007KT P6SM SCT250
Issued Valid From Valid To
Aug-21 @ 05:20 UTC
(12 hours ago)
Aug-21 @ 06:00 UTC
(12 hours ago)
Aug-22 @ 06:00 UTC
(in 12 hours)
Expired Click to View Aug-21 @ 06:00 to Aug-21 @ 09:00
KLIT 210520Z 2106/2206 29006KT P6SM SCT050
Wind Visibility Clouds
290° at 6 knots Greater than 6 miles
  • Scattered at 5,000' AGL
Expired Click to View Aug-21 @ 09:00 to Aug-21 @ 15:00
FM210900 27008KT P6SM SCT250
Wind Visibility Clouds
270° at 8 knots Greater than 6 miles
  • Scattered at 25,000' AGL
From Aug-21 @ 15:00 to Aug-22 @ 00:00
FM211500 30009G18KT P6SM BKN050
Wind Visibility Clouds
300° at 9 knots
 Gusting to 18 knots
Greater than 6 miles
  • Broken at 5,000' AGL
From Aug-22 @ 00:00 to Aug-22 @ 06:00
FM220000 34007KT P6SM SCT250
Wind Visibility Clouds
340° at 7 knots Greater than 6 miles
  • Scattered at 25,000' AGL
KLIT 210520Z 2106/2206 29006KT P6SM SCT050 FM210900 27008KT P6SM SCT250 FM211500 30009G18KT P6SM BKN050 FM220000 34007KT P6SM SCT250
Issued Aug-21 @ 05:20 UTC
(12 hours ago)
Valid From Aug-21 @ 06:00 UTC
(12 hours ago)
Valid To Aug-22 @ 06:00 UTC
(in 12 hours)
Aug-21 @ 06:00 - Aug-21 @ 09:00
Wind Visibility
290° at 6 knots Greater than 6 miles
Clouds
  • Scattered at 5,000' AGL
Aug-21 @ 09:00 - Aug-21 @ 15:00
Wind Visibility
270° at 8 knots Greater than 6 miles
Clouds
  • Scattered at 25,000' AGL
From Aug-21 @ 15:00 - Aug-22 @ 00:00
Wind Visibility
300° at 9 knots
 Gusting to 18 knots
Greater than 6 miles
Clouds
  • Broken at 5,000' AGL
From Aug-22 @ 00:00 - Aug-22 @ 06:00
Wind Visibility
340° at 7 knots Greater than 6 miles
Clouds
  • Scattered at 25,000' AGL